createdAt,value
2019-05-12T00:00:07.922Z,101471.41
2019-05-12T00:02:35.286Z,101462.65
2019-05-12T00:05:02.439Z,101469.22
2019-05-12T00:07:29.635Z,101466.16
2019-05-12T00:09:58.189Z,101466.59
2019-05-12T00:12:27.720Z,101468.72
2019-05-12T00:14:54.882Z,101470.09
2019-05-12T00:17:21.938Z,101468.27
2019-05-12T00:19:49.466Z,101471.33
2019-05-12T00:22:18.442Z,101478.27
2019-05-12T00:24:47.750Z,101472.16
2019-05-12T00:27:17.985Z,101477.02
2019-05-12T00:29:45.079Z,101484.84
2019-05-12T00:32:12.209Z,101481.34
2019-05-12T00:34:39.240Z,101481.77
2019-05-12T00:37:08.280Z,101485.64
2019-05-12T00:39:35.342Z,101485.26
2019-05-12T00:42:02.812Z,101481.69
2019-05-12T00:44:30.371Z,101490.44
2019-05-12T00:46:57.763Z,101492.66
2019-05-12T00:49:24.917Z,101490.90
2019-05-12T00:51:52.448Z,101493.90
2019-05-12T00:54:19.581Z,101501.48
2019-05-12T00:56:48.253Z,101500.53
2019-05-12T00:59:16.930Z,101506.22
2019-05-12T01:01:44.966Z,101506.65
2019-05-12T01:04:12.115Z,101512.30
2019-05-12T01:06:39.902Z,101521.50
2019-05-12T01:09:08.841Z,101516.22
2019-05-12T01:11:37.886Z,101520.97
2019-05-12T01:14:05.216Z,101526.38
2019-05-12T01:16:32.936Z,101526.31
2019-05-12T01:19:00.418Z,101522.81
2019-05-12T01:21:28.734Z,101530.69
2019-05-12T01:24:00.532Z,101536.81
2019-05-12T01:26:28.329Z,101542.97
2019-05-12T01:28:55.005Z,101548.65
2019-05-12T01:31:24.177Z,101547.36
2019-05-12T01:33:51.524Z,101553.09
2019-05-12T01:36:18.957Z,101557.47
2019-05-12T01:38:48.289Z,101559.75
2019-05-12T01:41:17.506Z,101564.98
2019-05-12T01:43:44.525Z,101563.23
2019-05-12T01:46:11.629Z,101569.81
2019-05-12T01:48:38.963Z,101563.30
2019-05-12T01:51:08.240Z,101567.62
2019-05-12T01:53:37.634Z,101574.64
2019-05-12T01:56:04.692Z,101580.77
2019-05-12T01:58:31.856Z,101581.66
2019-05-12T02:00:59.043Z,101588.16
2019-05-12T02:03:28.226Z,101595.22
2019-05-12T02:05:58.003Z,101595.66
2019-05-12T02:08:31.092Z,101592.97
2019-05-12T02:11:18.333Z,101602.67
2019-05-12T02:13:45.633Z,101609.25
2019-05-12T02:16:13.183Z,101597.35
2019-05-12T02:18:40.388Z,101607.80
2019-05-12T02:21:08.416Z,101610.44
2019-05-12T02:23:35.542Z,101609.67
2019-05-12T02:26:02.995Z,101610.51
2019-05-12T02:28:30.110Z,101617.13
2019-05-12T02:30:58.960Z,101616.63
2019-05-12T02:33:26.251Z,101618.00
2019-05-12T02:35:54.842Z,101625.88
2019-05-12T02:38:24.976Z,101624.56
2019-05-12T02:40:51.660Z,101624.07
2019-05-12T02:43:18.761Z,101624.52
2019-05-12T02:45:45.920Z,101626.75
2019-05-12T02:48:14.470Z,101629.39
2019-05-12T02:50:44.985Z,101636.78
2019-05-12T02:53:14.217Z,101636.78
2019-05-12T02:55:40.879Z,101639.02
2019-05-12T02:58:09.814Z,101631.14
2019-05-12T03:00:37.185Z,101634.25
2019-05-12T03:03:07.311Z,101641.72
2019-05-12T03:05:35.197Z,101648.22
2019-05-12T03:08:04.866Z,101653.92
2019-05-12T03:10:35.559Z,101655.23
2019-05-12T03:13:04.375Z,101659.22
2019-05-12T03:15:35.832Z,101661.36
2019-05-12T03:18:00.830Z,101662.23
2019-05-12T03:20:28.150Z,101656.50
2019-05-12T03:22:55.553Z,101658.73
2019-05-12T03:25:26.107Z,101657.86
2019-05-12T03:27:54.560Z,101664.47
2019-05-12T03:30:20.874Z,101667.11
2019-05-12T03:32:48.228Z,101669.25
2019-05-12T03:35:17.729Z,101667.10
2019-05-12T03:37:45.376Z,101671.92
2019-05-12T03:40:14.455Z,101676.30
2019-05-12T03:42:44.457Z,101694.27
2019-05-12T03:45:10.727Z,101701.67
2019-05-12T03:47:37.810Z,101699.48
2019-05-12T03:50:05.061Z,101706.05
2019-05-12T03:52:34.988Z,101709.98
2019-05-12T03:55:01.192Z,101707.77
2019-05-12T03:57:28.263Z,101709.55
2019-05-12T03:59:55.416Z,101714.80
2019-05-12T04:02:25.073Z,101717.00
2019-05-12T04:05:15.624Z,101725.77
2019-05-12T04:07:44.808Z,101727.95
2019-05-12T04:10:10.866Z,101741.09
2019-05-12T04:12:37.958Z,101745.52
2019-05-12T04:15:05.488Z,101748.10
2019-05-12T04:17:34.937Z,101755.95
2019-05-12T04:20:04.808Z,101755.95
2019-05-12T04:22:31.159Z,101761.69
2019-05-12T04:24:58.687Z,101760.81
2019-05-12T04:27:25.760Z,101756.46
2019-05-12T04:29:54.729Z,101763.03
2019-05-12T04:32:24.934Z,101764.31
2019-05-12T04:34:54.830Z,101770.88
2019-05-12T04:37:20.955Z,101782.71
2019-05-12T04:39:48.103Z,101785.77
2019-05-12T04:42:15.269Z,101785.78
2019-05-12T04:44:44.860Z,101799.80
2019-05-12T04:47:14.321Z,101801.55
2019-05-12T04:49:41.271Z,101806.39
2019-05-12T04:52:08.348Z,101809.44
2019-05-12T04:54:35.734Z,101817.75
2019-05-12T04:57:04.200Z,101820.36
2019-05-12T04:59:34.333Z,101823.02
2019-05-12T05:02:00.607Z,101829.55
2019-05-12T05:04:28.177Z,101836.16
2019-05-12T05:06:55.254Z,101839.20
2019-05-12T05:09:24.540Z,101854.94
2019-05-12T05:11:54.151Z,101859.30
2019-05-12T05:14:20.593Z,101853.19
2019-05-12T05:16:47.693Z,101860.17
2019-05-12T05:19:14.810Z,101864.55
2019-05-12T05:21:43.762Z,101871.56
2019-05-12T05:24:14.045Z,101889.06
2019-05-12T05:26:40.770Z,101887.31
2019-05-12T05:29:07.888Z,101891.73
2019-05-12T05:31:35.836Z,101894.73
2019-05-12T05:34:04.890Z,101892.50
2019-05-12T05:36:34.447Z,101905.25
2019-05-12T05:39:03.852Z,101908.39
2019-05-12T05:41:30.272Z,101919.31
2019-05-12T05:43:58.495Z,101919.75
2019-05-12T05:46:26.052Z,101925.02
2019-05-12T05:48:54.235Z,101933.31
2019-05-12T05:51:23.730Z,101929.81
2019-05-12T05:53:51.947Z,101932.37
2019-05-12T05:56:19.450Z,101931.97
2019-05-12T05:58:51.685Z,101938.91
2019-05-12T06:01:19.296Z,101942.42
2019-05-12T06:03:46.397Z,101956.93
2019-05-12T06:06:23.656Z,101960.84
2019-05-12T06:08:57.732Z,101973.56
2019-05-12T06:11:31.184Z,101978.83
2019-05-12T06:14:05.468Z,101984.02
2019-05-12T06:16:30.797Z,101990.11
2019-05-12T06:18:58.250Z,101981.82
2019-05-12T06:21:29.047Z,101994.50
2019-05-12T06:23:59.042Z,102004.08
2019-05-12T06:26:34.873Z,102001.97
2019-05-12T06:28:58.214Z,101999.30
2019-05-12T06:31:29.877Z,102008.02
2019-05-12T06:33:55.211Z,102007.63
2019-05-12T06:36:27.146Z,102001.53
2019-05-12T06:38:54.112Z,102005.91
2019-05-12T06:41:25.204Z,102005.92
2019-05-12T06:43:50.204Z,102006.75
2019-05-12T06:46:21.032Z,102017.69
2019-05-12T06:48:46.484Z,102021.68
2019-05-12T06:51:19.383Z,102020.80
2019-05-12T06:53:44.339Z,102020.00
2019-05-12T06:56:15.431Z,102027.82
2019-05-12T06:58:40.677Z,102029.00
2019-05-12T07:01:11.084Z,102025.38
2019-05-12T07:03:37.542Z,102025.00
2019-05-12T07:06:09.335Z,102017.86
2019-05-12T07:08:38.223Z,102019.00
2019-05-12T07:11:05.891Z,102024.20
2019-05-12T07:13:34.101Z,102024.14
2019-05-12T07:16:16.713Z,102026.63
2019-05-12T07:18:43.863Z,102033.64
2019-05-12T07:21:17.820Z,102032.98
2019-05-12T07:23:41.264Z,102047.19
2019-05-12T07:26:13.980Z,102050.70
2019-05-12T07:28:40.520Z,102055.91
2019-05-12T07:31:07.467Z,102051.22
2019-05-12T07:33:41.449Z,102056.14
2019-05-12T07:36:06.269Z,102062.83
2019-05-12T07:38:34.502Z,102061.48
2019-05-12T07:41:08.899Z,102079.29
2019-05-12T07:43:33.779Z,102066.55
2019-05-12T07:46:06.548Z,102072.70
2019-05-12T07:48:33.466Z,102066.09
2019-05-12T07:51:00.934Z,102074.97
2019-05-12T07:53:28.097Z,102072.96
2019-05-12T07:55:55.255Z,102071.26
2019-05-12T07:58:23.947Z,102080.77
2019-05-12T08:00:53.870Z,102079.06
2019-05-12T08:03:21.351Z,102074.94
2019-05-12T08:05:51.331Z,102075.29
2019-05-12T08:08:18.337Z,102082.30
2019-05-12T08:10:45.442Z,102085.20
2019-05-12T08:13:14.621Z,102083.63
2019-05-12T08:15:45.811Z,102093.84
2019-05-12T08:18:10.969Z,102090.48
2019-05-12T08:20:38.122Z,102102.17
2019-05-12T08:23:10.160Z,102093.84
2019-05-12T08:25:34.392Z,102088.69
2019-05-12T08:28:12.290Z,102094.53
2019-05-12T08:30:33.641Z,102083.54
2019-05-12T08:33:03.664Z,102090.30
2019-05-12T08:35:34.743Z,102092.92
2019-05-12T08:37:58.949Z,102101.34
2019-05-12T08:40:26.187Z,102102.02
2019-05-12T08:42:53.991Z,102103.88
2019-05-12T08:45:25.090Z,102104.20
2019-05-12T08:47:50.709Z,102105.33
2019-05-12T08:50:23.194Z,102108.84
2019-05-12T08:52:47.057Z,102114.74
2019-05-12T08:55:16.812Z,102108.92
2019-05-12T08:57:49.352Z,102120.61
2019-05-12T09:00:13.434Z,102124.19
2019-05-12T09:02:46.053Z,102123.00
2019-05-12T09:05:09.773Z,102128.31
2019-05-12T09:07:39.846Z,102134.84
2019-05-12T09:10:06.769Z,102134.38
2019-05-12T09:12:34.267Z,102138.53
2019-05-12T09:15:01.448Z,102137.00
2019-05-12T09:17:28.506Z,102130.80
2019-05-12T09:20:05.908Z,102138.19
2019-05-12T09:22:24.664Z,102141.08
2019-05-12T09:24:53.384Z,102140.03
2019-05-12T09:27:21.016Z,102143.14
2019-05-12T09:29:48.160Z,102140.90
2019-05-12T09:32:15.257Z,102150.77
2019-05-12T09:34:46.937Z,102155.44
2019-05-12T09:37:11.390Z,102156.70
2019-05-12T09:39:42.481Z,102145.33
2019-05-12T09:42:07.947Z,102145.39
2019-05-12T09:44:34.969Z,102146.69
2019-05-12T09:47:04.108Z,102144.03
2019-05-12T09:49:36.749Z,102142.53
2019-05-12T09:52:00.633Z,102153.04
2019-05-12T09:54:35.550Z,102154.00
2019-05-12T09:56:59.680Z,102147.55
2019-05-12T09:59:26.439Z,102155.77
2019-05-12T10:01:54.144Z,102160.58
2019-05-12T10:04:22.227Z,102160.98
2019-05-12T10:06:49.287Z,102150.30
2019-05-12T10:09:19.732Z,102149.53
2019-05-12T10:11:46.236Z,102152.72
2019-05-12T10:14:13.984Z,102144.86
2019-05-12T10:16:49.431Z,102138.69
2019-05-12T10:19:14.425Z,102147.12
2019-05-12T10:21:43.836Z,102149.28
2019-05-12T10:24:11.087Z,102151.26
2019-05-12T10:26:41.174Z,102143.13
2019-05-12T10:29:17.530Z,102157.52
2019-05-12T10:31:39.395Z,102146.58
2019-05-12T10:34:20.733Z,102155.44
2019-05-12T10:36:49.170Z,102159.89
2019-05-12T10:39:16.788Z,102167.62
2019-05-12T10:41:44.225Z,102163.17
2019-05-12T10:44:14.015Z,102170.34
2019-05-12T10:46:42.562Z,102165.93
2019-05-12T10:49:10.469Z,102164.80
2019-05-12T10:51:39.018Z,102170.83
2019-05-12T10:54:13.155Z,102170.75
2019-05-12T10:56:40.313Z,102162.20
2019-05-12T10:59:07.423Z,102172.86
2019-05-12T11:01:38.555Z,102175.64
2019-05-12T11:04:04.413Z,102174.62
2019-05-12T11:06:33.931Z,102182.66
2019-05-12T11:09:03.594Z,102185.80
2019-05-12T11:11:32.891Z,102175.83
2019-05-12T11:13:59.845Z,102179.75
2019-05-12T11:16:31.172Z,102186.45
2019-05-12T11:19:00.354Z,102190.69
2019-05-12T11:21:24.998Z,102197.05
2019-05-12T11:23:54.446Z,102196.84
2019-05-12T11:26:23.462Z,102190.54
2019-05-12T11:28:50.709Z,102203.28
2019-05-12T11:31:17.898Z,102208.97
2019-05-12T11:33:45.196Z,102209.77
2019-05-12T11:36:13.565Z,102214.02
2019-05-12T11:38:40.929Z,102217.81
2019-05-12T11:41:10.121Z,102208.97
2019-05-12T11:43:37.054Z,102216.70
2019-05-12T11:46:04.195Z,102214.58
2019-05-12T11:48:31.292Z,102205.08
2019-05-12T11:50:58.789Z,102210.68
2019-05-12T11:53:31.094Z,102210.45
2019-05-12T11:55:55.285Z,102214.95
2019-05-12T11:58:23.441Z,102217.56
2019-05-12T12:00:53.367Z,102213.85
2019-05-12T12:03:23.265Z,102203.07
2019-05-12T12:05:50.810Z,102221.44
2019-05-12T12:08:17.858Z,102220.81
2019-05-12T12:10:45.011Z,102220.54
2019-05-12T12:13:14.098Z,102213.72
2019-05-12T12:15:41.169Z,102213.58
2019-05-12T12:18:13.093Z,102215.52
2019-05-12T12:20:37.650Z,102218.03
2019-05-12T12:23:10.772Z,102216.37
2019-05-12T12:25:34.468Z,102224.20
2019-05-12T12:28:04.070Z,102218.88
2019-05-12T12:30:30.623Z,102228.34
2019-05-12T12:33:00.362Z,102227.09
2019-05-12T12:35:26.761Z,102222.85
2019-05-12T12:37:54.287Z,102244.91
2019-05-12T12:40:21.425Z,102221.95
2019-05-12T12:42:48.919Z,102228.44
2019-05-12T12:45:40.230Z,102234.97
2019-05-12T12:48:07.446Z,102230.53
2019-05-12T12:50:34.511Z,102229.66
2019-05-12T12:53:01.730Z,102230.78
2019-05-12T12:55:29.110Z,102229.06
2019-05-12T12:57:56.173Z,102243.23
2019-05-12T13:00:32.144Z,102246.22
2019-05-12T13:02:52.595Z,102249.31
2019-05-12T13:05:20.109Z,102258.45
2019-05-12T13:07:47.193Z,102250.44
2019-05-12T13:10:14.524Z,102248.86
2019-05-12T13:12:43.697Z,102252.36
2019-05-12T13:15:10.582Z,102248.95
2019-05-12T13:17:41.712Z,102250.37
2019-05-12T13:20:07.549Z,102257.73
2019-05-12T13:22:34.601Z,102263.77
2019-05-12T13:25:04.473Z,102251.02
2019-05-12T13:27:39.768Z,102257.78
2019-05-12T13:30:21.348Z,102261.75
2019-05-12T13:32:56.764Z,102261.83
2019-05-12T13:35:55.666Z,102267.98
2019-05-12T13:38:24.418Z,102266.66
2019-05-12T13:40:54.053Z,102264.92
2019-05-12T13:43:23.796Z,102270.75
2019-05-12T13:45:50.824Z,102278.67
2019-05-12T13:51:12.649Z,102280.38
2019-05-12T13:53:40.213Z,102282.25
2019-05-12T13:56:07.983Z,102278.66
2019-05-12T13:58:42.391Z,102284.38
2019-05-12T14:01:17.089Z,102289.70
2019-05-12T14:03:33.613Z,102293.22
2019-05-12T14:06:03.392Z,102293.00
2019-05-12T14:08:30.404Z,102293.94
2019-05-12T14:10:59.704Z,102291.34
2019-05-12T14:13:26.963Z,102303.23
2019-05-12T14:15:55.177Z,102309.36
2019-05-12T14:18:22.240Z,102303.91
2019-05-12T14:20:50.998Z,102291.58
2019-05-12T14:23:18.613Z,102302.98
2019-05-12T14:25:45.734Z,102320.20
2019-05-12T14:28:16.283Z,102321.59
2019-05-12T14:30:49.722Z,102321.60
2019-05-12T14:33:11.799Z,102318.70
2019-05-12T14:35:40.928Z,102315.39
2019-05-12T14:38:09.797Z,102315.91
2019-05-12T14:40:36.893Z,102323.78
2019-05-12T14:43:04.415Z,102322.70
2019-05-12T14:45:33.266Z,102321.23
2019-05-12T14:48:07.549Z,102326.81
2019-05-12T14:50:30.332Z,102327.47
2019-05-12T14:52:59.699Z,102330.36
2019-05-12T14:55:27.225Z,102329.36
2019-05-12T14:57:54.395Z,102347.07
2019-05-12T15:00:24.093Z,102338.59
2019-05-12T15:02:59.109Z,102340.97
2019-05-12T15:05:27.507Z,102331.91
2019-05-12T15:07:59.874Z,102337.59
2019-05-12T15:10:24.097Z,102339.38
2019-05-12T15:12:51.639Z,102338.73
2019-05-12T15:15:20.676Z,102358.04
2019-05-12T15:17:48.068Z,102351.20
2019-05-12T15:20:15.557Z,102354.94
2019-05-12T15:22:51.180Z,102346.80
2019-05-12T15:25:14.843Z,102344.77
2019-05-12T15:27:48.203Z,102352.60
2019-05-12T15:30:22.694Z,102348.67
2019-05-12T15:32:45.271Z,102358.52
2019-05-12T15:35:13.770Z,102355.07
2019-05-12T15:37:43.700Z,102361.45
2019-05-12T15:40:14.208Z,102366.28
2019-05-12T15:42:45.199Z,102366.07
2019-05-12T15:45:16.442Z,102376.91
2019-05-12T15:47:44.520Z,102370.45
2019-05-12T15:50:14.605Z,102370.16
2019-05-12T15:52:45.533Z,102379.52
2019-05-12T15:55:17.603Z,102380.05
2019-05-12T15:57:44.026Z,102374.14
2019-05-12T16:00:13.752Z,102371.58
2019-05-12T16:02:41.233Z,102375.34
2019-05-12T16:05:08.785Z,102384.31
2019-05-12T16:07:39.567Z,102378.52
2019-05-12T16:10:05.157Z,102385.70
2019-05-12T16:12:34.379Z,102391.50
2019-05-12T16:15:04.470Z,102387.83
2019-05-12T16:17:31.076Z,102389.63
2019-05-12T16:20:00.377Z,102383.66
2019-05-12T16:22:30.864Z,102391.44
2019-05-12T16:24:57.195Z,102387.54
2019-05-12T16:27:33.132Z,102392.22
2019-05-12T16:29:56.005Z,102395.80
2019-05-12T16:32:27.142Z,102393.74
2019-05-12T16:34:54.133Z,102398.47
2019-05-12T16:37:25.529Z,102404.25
2019-05-12T16:39:50.555Z,102403.98
2019-05-12T16:42:17.627Z,102409.84
2019-05-12T16:44:45.146Z,102411.88
2019-05-12T16:47:13.514Z,102410.13
2019-05-12T16:49:44.413Z,102413.78
2019-05-12T16:52:13.694Z,102417.74
2019-05-12T16:54:40.757Z,102421.25
2019-05-12T16:57:12.957Z,102431.40
2019-05-12T16:59:38.395Z,102436.28
2019-05-12T17:02:09.637Z,102440.17
2019-05-12T17:04:34.832Z,102437.28
2019-05-12T17:07:02.714Z,102439.28
2019-05-12T17:09:33.084Z,102443.83
2019-05-12T17:11:59.976Z,102448.34
2019-05-12T17:14:28.777Z,102447.98
2019-05-12T17:16:59.386Z,102456.98
2019-05-12T17:19:26.970Z,102466.41
2019-05-12T17:21:59.486Z,102466.38
2019-05-12T17:24:28.150Z,102473.14
2019-05-12T17:26:55.540Z,102468.85
2019-05-12T17:29:24.291Z,102471.81
2019-05-12T17:31:53.585Z,102472.88
2019-05-12T17:34:23.535Z,102485.23
2019-05-12T17:36:56.085Z,102489.78
2019-05-12T17:39:20.017Z,102493.56
2019-05-12T17:41:47.300Z,102492.23
2019-05-12T17:44:14.587Z,102490.29
2019-05-12T17:46:44.027Z,102493.41
2019-05-12T17:49:15.707Z,102504.58
2019-05-12T17:51:40.385Z,102497.86
2019-05-12T17:54:16.035Z,102495.39
2019-05-12T17:56:38.560Z,102501.49
2019-05-12T17:59:06.755Z,102504.80
2019-05-12T18:01:35.458Z,102507.36
2019-05-12T18:04:04.255Z,102510.86
2019-05-12T18:06:33.903Z,102511.37
2019-05-12T18:09:00.750Z,102514.83
2019-05-12T18:11:28.179Z,102515.77
2019-05-12T18:14:01.370Z,102512.80
2019-05-12T18:16:24.960Z,102523.08
2019-05-12T18:18:52.859Z,102523.09
2019-05-12T18:21:21.500Z,102526.38
2019-05-12T18:23:49.093Z,102528.56
2019-05-12T18:26:16.681Z,102538.70
2019-05-12T18:28:44.287Z,102537.17
2019-05-12T18:31:52.608Z,102546.96
2019-05-12T18:34:13.878Z,102544.30
2019-05-12T18:36:41.279Z,102550.59
2019-05-12T18:39:11.449Z,102549.78
2019-05-12T18:41:38.111Z,102562.13
2019-05-12T18:44:05.419Z,102559.98
2019-05-12T18:46:36.327Z,102558.23
2019-05-12T18:49:05.244Z,102566.31
2019-05-12T18:51:34.146Z,102575.16
2019-05-12T18:54:03.728Z,102575.79
2019-05-12T18:56:30.158Z,102584.62
2019-05-12T18:59:05.116Z,102593.44
2019-05-12T19:01:27.342Z,102598.34
2019-05-12T19:03:54.877Z,102602.30
2019-05-12T19:06:23.392Z,102609.45
2019-05-12T19:08:53.695Z,102611.27
2019-05-12T19:11:23.638Z,102618.39
2019-05-12T19:13:53.309Z,102608.67
2019-05-12T19:16:19.177Z,102619.28
2019-05-12T19:18:48.013Z,102628.09
2019-05-12T19:21:18.392Z,102632.93
2019-05-12T19:23:44.601Z,102631.66
2019-05-12T19:26:13.577Z,102642.67
2019-05-12T19:28:44.750Z,102645.34
2019-05-12T19:31:10.338Z,102647.09
2019-05-12T19:33:43.874Z,102648.42
2019-05-12T19:36:07.988Z,102658.55
2019-05-12T19:38:35.432Z,102659.02
2019-05-12T19:41:04.653Z,102663.42
2019-05-12T19:43:33.993Z,102667.80
2019-05-12T19:46:03.662Z,102663.44
2019-05-12T19:48:35.147Z,102674.41
2019-05-12T19:51:03.168Z,102674.85
2019-05-12T19:53:28.201Z,102676.16
2019-05-12T19:55:55.961Z,102671.31
2019-05-12T19:58:23.771Z,102683.20
2019-05-12T20:00:51.251Z,102684.93
2019-05-12T20:03:19.327Z,102686.70
2019-05-12T20:05:46.441Z,102689.77
2019-05-12T20:08:13.821Z,102697.26
2019-05-12T20:10:44.638Z,102698.55
2019-05-12T20:13:09.955Z,102698.11
2019-05-12T20:15:41.058Z,102701.19
2019-05-12T20:18:06.142Z,102702.01
2019-05-12T20:20:36.737Z,102705.57
2019-05-12T20:23:03.573Z,102713.45
2019-05-12T20:25:30.879Z,102717.75
2019-05-12T20:28:05.638Z,102715.09
2019-05-12T20:30:28.213Z,102726.08
2019-05-12T20:32:55.507Z,102725.63
2019-05-12T20:35:22.596Z,102724.65
2019-05-12T20:37:53.062Z,102728.25
2019-05-12T20:40:18.806Z,102730.02
2019-05-12T20:43:05.571Z,102729.56
2019-05-12T20:45:15.804Z,102733.97
2019-05-12T20:47:45.202Z,102740.08
2019-05-12T20:50:14.709Z,102739.66
2019-05-12T20:52:46.281Z,102738.27
2019-05-12T20:55:11.244Z,102740.91
2019-05-12T20:57:40.123Z,102735.64
2019-05-12T21:00:08.561Z,102740.91
2019-05-12T21:02:35.815Z,102741.73
2019-05-12T21:05:09.518Z,102742.09
2019-05-12T21:07:33.881Z,102744.18
2019-05-12T21:10:04.282Z,102741.84
2019-05-12T21:12:33.397Z,102746.16
2019-05-12T21:15:12.631Z,102743.91
2019-05-12T21:17:40.599Z,102745.58
2019-05-12T21:19:59.433Z,102749.55
2019-05-12T21:22:26.735Z,102747.76
2019-05-12T21:24:54.068Z,102750.30
2019-05-12T21:27:21.486Z,102747.59
2019-05-12T21:29:49.343Z,102751.48
2019-05-12T21:32:17.049Z,102757.69
2019-05-12T21:34:44.186Z,102757.67
2019-05-12T21:37:13.769Z,102762.66
2019-05-12T21:39:46.058Z,102755.66
2019-05-12T21:42:09.836Z,102764.47
2019-05-12T21:44:41.384Z,102765.33
2019-05-12T21:47:10.391Z,102766.65
2019-05-12T21:49:34.975Z,102764.08
2019-05-12T21:52:04.104Z,102767.58
2019-05-12T21:54:37.718Z,102771.98
2019-05-12T21:57:00.894Z,102775.00
2019-05-12T21:59:34.581Z,102776.34
2019-05-12T22:01:57.758Z,102774.52
2019-05-12T22:04:24.863Z,102780.92
2019-05-12T22:06:57.077Z,102777.98
2019-05-12T22:09:23.849Z,102782.76
2019-05-12T22:11:53.285Z,102793.20
2019-05-12T22:14:19.555Z,102791.02
2019-05-12T22:16:49.563Z,102798.42
2019-05-12T22:19:16.694Z,102796.64
2019-05-12T22:21:49.219Z,102796.88
2019-05-12T22:24:14.584Z,102800.45
2019-05-12T22:26:45.858Z,102796.33
2019-05-12T22:29:13.393Z,102796.27
2019-05-12T22:31:44.697Z,102798.80
2019-05-12T22:34:09.105Z,102806.48
2019-05-12T22:36:36.318Z,102794.41
2019-05-12T22:39:05.776Z,102804.78
2019-05-12T22:41:36.893Z,102805.03
2019-05-12T22:44:01.970Z,102803.03
2019-05-12T22:46:31.377Z,102805.83
2019-05-12T22:48:58.139Z,102802.10
2019-05-12T22:51:26.878Z,102802.77
2019-05-12T22:53:54.279Z,102799.13
2019-05-12T22:56:23.605Z,102803.33
2019-05-12T22:58:52.063Z,102808.91
2019-05-12T23:01:19.613Z,102807.06
2019-05-12T23:03:51.753Z,102806.75
2019-05-12T23:06:23.530Z,102809.59
2019-05-12T23:08:49.223Z,102814.61
2019-05-12T23:11:14.572Z,102814.77
2019-05-12T23:13:42.871Z,102812.30
2019-05-12T23:16:10.095Z,102811.26
2019-05-12T23:18:37.199Z,102814.56
2019-05-12T23:21:15.973Z,102809.50
2019-05-12T23:23:34.071Z,102812.80
2019-05-12T23:26:02.073Z,102809.97
2019-05-12T23:28:29.669Z,102813.81
2019-05-12T23:30:56.819Z,102814.62
2019-05-12T23:33:32.053Z,102831.05
2019-05-12T23:35:53.566Z,102832.81
2019-05-12T23:38:21.134Z,102830.16
2019-05-12T23:40:48.485Z,102830.33
2019-05-12T23:43:15.526Z,102829.81
2019-05-12T23:45:44.438Z,102832.77
2019-05-12T23:48:13.604Z,102837.59
2019-05-12T23:50:41.049Z,102844.50
2019-05-12T23:53:08.141Z,102830.91
2019-05-12T23:55:35.340Z,102835.77
2019-05-12T23:58:04.391Z,102834.45
